Time;durP1;ratioP1;P1;durP2;ratioP2;P2;SDS_P1;SDS_P2;PMS_P1;PMS_P2;Temp;Humidity;BMP_temperature;BMP_pressure;BME280_temperature;BME280_humidity;BME280_pressure;Samples;Min_cycle;Max_cycle;Signal;HPM_P1;HPM_P2
2023/09/13 00:00:18;;;;;;;32.40;28.90;;;;;;;17.38;80.89;98495.40;226130;1280;22575;-74
2023/09/13 00:05:20;;;;;;;33.10;29.70;;;;;;;17.32;80.95;98494.61;226065;1275;22546;-74
2023/09/13 00:10:22;;;;;;;32.90;29.50;;;;;;;17.25;81.10;98493.29;226127;1280;22543;-73
2023/09/13 00:15:23;;;;;;;34.40;30.60;;;;;;;17.20;81.39;98493.25;226102;1280;24385;-75
2023/09/13 00:20:27;;;;;;;32.10;28.70;;;;;;;17.16;81.64;98492.48;226078;1280;22588;-75
2023/09/13 00:25:29;;;;;;;33.40;29.50;;;;;;;17.12;81.81;98491.60;226143;1278;24236;-74
2023/09/13 00:30:32;;;;;;;32.80;29.40;;;;;;;17.08;81.98;98493.11;226100;1277;22532;-74
2023/09/13 00:35:34;;;;;;;33.40;28.90;;;;;;;17.04;82.10;98491.70;226026;1277;26279;-74
2023/09/13 00:40:36;;;;;;;32.10;27.80;;;;;;;17.00;82.41;98494.98;225963;1279;22543;-74
2023/09/13 00:45:38;;;;;;;32.60;29.20;;;;;;;16.97;82.52;98497.25;226103;1280;22537;-75
2023/09/13 00:50:41;;;;;;;34.30;29.20;;;;;;;16.92;82.50;98498.61;226110;1279;23261;-75
2023/09/13 00:55:54;;;;;;;34.90;29.80;;;;;;;16.89;82.72;98503.41;226161;1279;22536;-74
2023/09/13 01:00:56;;;;;;;35.50;31.50;;;;;;;16.86;82.90;98497.85;226010;1280;22536;-75
2023/09/13 01:05:59;;;;;;;34.20;30.60;;;;;;;16.83;83.05;98497.93;226065;1277;22544;-74
2023/09/13 01:11:01;;;;;;;35.50;30.90;;;;;;;16.81;83.23;98492.02;226034;1277;22631;-73
2023/09/13 01:16:14;;;;;;;34.60;31.10;;;;;;;16.80;83.55;98490.44;225910;1280;22591;-74
2023/09/13 01:21:58;;;;;;;34.50;29.40;;;;;;;16.78;83.66;98488.05;226089;1263;22644;-75
2023/09/13 01:27:38;;;;;;;33.00;29.00;;;;;;;16.74;83.60;98487.41;226078;1275;22530;-74
2023/09/13 01:32:44;;;;;;;35.40;31.70;;;;;;;16.72;83.72;98484.73;225878;1280;22650;-74
2023/09/13 01:37:46;;;;;;;37.30;33.40;;;;;;;16.68;83.76;98481.35;225947;1276;213576;-75
2023/09/13 01:42:49;;;;;;;39.60;33.00;;;;;;;16.65;84.02;98482.98;226050;1279;22536;-75
2023/09/13 01:47:53;;;;;;;34.70;30.90;;;;;;;16.61;84.11;98483.09;226057;1280;22911;-73
2023/09/13 01:52:55;;;;;;;34.00;30.20;;;;;;;16.56;84.10;98481.66;226047;1276;25276;-75
2023/09/13 01:57:57;;;;;;;34.80;28.70;;;;;;;16.54;84.23;98485.28;226030;1273;22628;-75
2023/09/13 02:02:59;;;;;;;34.30;29.30;;;;;;;16.51;84.27;98481.31;225887;1279;25473;-74
2023/09/13 02:08:01;;;;;;;31.30;27.80;;;;;;;16.49;84.23;98475.92;225880;1256;22557;-74
2023/09/13 02:13:03;;;;;;;30.70;26.20;;;;;;;16.46;84.29;98476.16;226070;1272;22661;-74
2023/09/13 02:18:05;;;;;;;29.50;26.40;;;;;;;16.44;84.74;98473.66;225988;1280;22536;-75
2023/09/13 02:23:07;;;;;;;31.90;26.70;;;;;;;16.42;84.69;98477.71;226050;1266;22566;-75
2023/09/13 02:28:09;;;;;;;28.90;25.80;;;;;;;16.39;84.60;98471.77;226058;1278;22482;-74
2023/09/13 02:33:11;;;;;;;31.10;26.20;;;;;;;16.36;84.74;98475.06;226042;1276;22556;-74
2023/09/13 02:38:13;;;;;;;28.30;25.30;;;;;;;16.33;84.46;98474.24;225923;1278;22618;-75
2023/09/13 02:43:15;;;;;;;28.00;25.10;;;;;;;16.32;84.56;98470.45;225886;1279;22818;-74
2023/09/13 02:48:17;;;;;;;28.80;25.60;;;;;;;16.29;84.68;98468.31;225922;1279;22596;-74
2023/09/13 02:53:19;;;;;;;28.50;25.50;;;;;;;16.27;84.66;98474.75;226073;1280;22528;-74
2023/09/13 02:58:21;;;;;;;30.60;27.30;;;;;;;16.23;84.63;98472.46;225619;1280;22928;-73
2023/09/13 03:03:24;;;;;;;31.30;28.00;;;;;;;16.19;84.82;98466.25;225700;1280;22604;-73
2023/09/13 03:08:26;;;;;;;31.50;27.50;;;;;;;16.17;84.68;98468.40;226036;1280;22560;-74
2023/09/13 03:13:29;;;;;;;31.90;28.40;;;;;;;16.14;84.94;98470.99;226065;1277;22547;-74
2023/09/13 03:18:31;;;;;;;31.50;27.50;;;;;;;16.11;85.01;98467.14;225918;1278;24771;-74
2023/09/13 03:23:33;;;;;;;31.50;28.10;;;;;;;16.08;85.01;98467.34;225919;1278;22540;-74
2023/09/13 03:28:34;;;;;;;31.40;27.60;;;;;;;16.07;85.32;98462.23;225991;1277;22651;-74
2023/09/13 03:33:39;;;;;;;31.30;28.10;;;;;;;16.07;85.03;98466.51;225982;1280;22548;-73
2023/09/13 03:38:43;;;;;;;31.40;28.10;;;;;;;16.04;85.32;98467.50;225925;1262;22563;-74
2023/09/13 03:43:45;;;;;;;31.20;27.80;;;;;;;16.01;85.28;98469.83;226007;1276;25360;-74
2023/09/13 03:48:48;;;;;;;34.50;29.40;;;;;;;15.95;85.07;98465.43;225828;1278;22566;-74
2023/09/13 03:53:51;;;;;;;33.10;29.30;;;;;;;15.91;85.11;98459.17;225975;1276;25321;-75
2023/09/13 03:58:53;;;;;;;34.40;30.30;;;;;;;15.88;85.13;98458.17;225963;1276;22544;-74
2023/09/13 04:03:56;;;;;;;33.20;29.40;;;;;;;15.85;85.51;98456.34;226028;1277;23003;-74
2023/09/13 04:08:58;;;;;;;33.20;29.70;;;;;;;15.83;85.66;98456.83;225950;1276;22594;-74
2023/09/13 04:14:01;;;;;;;31.80;28.30;;;;;;;15.82;85.58;98456.91;225961;1278;22544;-74
2023/09/13 04:19:03;;;;;;;32.60;29.00;;;;;;;15.82;85.50;98462.25;225936;1273;22551;-74
2023/09/13 04:24:06;;;;;;;31.40;26.80;;;;;;;15.83;85.70;98460.72;226036;1280;22563;-74
2023/09/13 04:29:08;;;;;;;32.00;27.80;;;;;;;15.85;85.71;98463.27;226053;1273;22546;-74
2023/09/13 04:34:10;;;;;;;33.70;30.10;;;;;;;15.87;85.93;98458.16;225975;1275;25272;-74
2023/09/13 04:39:12;;;;;;;32.10;28.10;;;;;;;15.89;85.75;98457.86;225972;1280;22557;-74
2023/09/13 04:44:14;;;;;;;32.40;28.00;;;;;;;15.90;85.54;98460.02;225963;1280;22540;-74
2023/09/13 04:49:17;;;;;;;32.10;27.00;;;;;;;15.92;85.62;98459.95;225984;1272;22571;-73
2023/09/13 04:54:22;;;;;;;31.30;27.90;;;;;;;15.95;85.53;98454.86;225992;1278;22565;-74
2023/09/13 04:59:39;;;;;;;30.90;27.60;;;;;;;16.00;85.64;98455.04;225712;1275;22547;-73
2023/09/13 05:04:41;;;;;;;31.70;28.10;;;;;;;16.08;85.68;98453.77;225982;1278;22540;-74
2023/09/13 05:09:43;;;;;;;30.40;25.40;;;;;;;16.18;85.68;98455.78;225986;1276;22547;-74
2023/09/13 05:14:47;;;;;;;25.70;23.00;;;;;;;16.29;85.66;98454.60;226027;1276;22545;-73
2023/09/13 05:19:49;;;;;;;25.30;22.30;;;;;;;16.43;85.63;98455.86;225969;1278;22577;-74
2023/09/13 05:24:50;;;;;;;29.10;21.40;;;;;;;16.59;85.32;98455.32;225970;1276;22583;-74
2023/09/13 05:29:53;;;;;;;27.90;21.80;;;;;;;16.76;85.39;98457.14;225977;1277;22531;-74
2023/09/13 05:34:55;;;;;;;24.50;19.00;;;;;;;16.94;85.18;98457.94;226002;1278;22547;-74
2023/09/13 05:39:58;;;;;;;26.20;19.40;;;;;;;17.14;84.86;98456.66;225985;1272;22527;-74
2023/09/13 05:45:00;;;;;;;30.90;19.30;;;;;;;17.35;84.70;98457.15;225696;1277;25637;-75
2023/09/13 05:50:02;;;;;;;28.20;18.80;;;;;;;17.56;84.57;98462.14;225646;1273;22644;-76
2023/09/13 05:55:04;;;;;;;20.60;16.90;;;;;;;17.78;84.20;98468.14;225652;1256;22555;-76
2023/09/13 06:00:07;;;;;;;23.30;17.50;;;;;;;17.99;83.84;98469.29;225460;1258;22549;-77
2023/09/13 06:05:12;;;;;;;24.10;17.50;;;;;;;18.18;83.57;98472.90;224941;1260;22650;-76
2023/09/13 06:10:14;;;;;;;22.70;16.40;;;;;;;18.37;83.20;98476.83;225294;1259;22541;-74
2023/09/13 06:15:18;;;;;;;19.60;16.40;;;;;;;18.55;82.79;98480.14;225163;1259;22558;-74
2023/09/13 06:20:20;;;;;;;22.70;16.80;;;;;;;18.72;82.43;98485.48;225167;1270;22643;-74
2023/09/13 06:25:22;;;;;;;23.80;17.50;;;;;;;18.88;81.97;98493.77;225245;1257;23019;-75
2023/09/13 06:30:24;;;;;;;21.10;16.70;;;;;;;19.03;81.74;98491.38;225401;1257;23046;-76
2023/09/13 06:35:26;;;;;;;21.20;16.20;;;;;;;19.19;81.44;98487.61;225298;1273;22617;-74
2023/09/13 06:40:28;;;;;;;24.00;17.90;;;;;;;19.36;81.24;98487.54;225401;1256;24319;-76
2023/09/13 06:45:36;;;;;;;23.50;16.90;;;;;;;19.54;81.05;98484.73;225249;1259;22637;-74
2023/09/13 06:50:59;;;;;;;24.20;16.90;;;;;;;19.75;80.80;98490.02;225431;1265;22548;-75
2023/09/13 06:56:04;;;;;;;23.30;15.90;;;;;;;19.95;80.50;98497.04;225560;1258;22540;-75
2023/09/13 07:01:12;;;;;;;19.60;15.30;;;;;;;20.16;80.25;98494.52;225358;1268;22536;-76
2023/09/13 07:06:34;;;;;;;16.30;14.60;;;;;;;20.40;79.91;98489.88;225332;1259;22543;-75
2023/09/13 07:11:38;;;;;;;18.50;14.20;;;;;;;20.66;79.82;98488.38;225349;1261;22542;-75
2023/09/13 07:16:40;;;;;;;15.30;13.70;;;;;;;20.89;79.21;98490.21;225333;1265;22548;-75
2023/09/13 07:21:43;;;;;;;19.90;13.70;;;;;;;21.13;78.98;98489.99;225239;1257;22546;-75
2023/09/13 07:26:44;;;;;;;19.60;12.40;;;;;;;21.40;78.68;98493.39;225445;1259;22562;-75
2023/09/13 07:31:46;;;;;;;19.10;12.50;;;;;;;21.66;78.22;98494.99;225718;1277;22839;-75
2023/09/13 07:36:49;;;;;;;18.10;13.20;;;;;;;21.92;77.88;98492.92;225438;1276;22543;-75
2023/09/13 07:41:51;;;;;;;20.90;12.60;;;;;;;22.20;77.53;98493.65;225629;1273;22550;-74
2023/09/13 07:46:53;;;;;;;18.30;12.20;;;;;;;22.49;77.14;98495.67;225791;1276;22494;-71
2023/09/13 07:51:56;;;;;;;16.10;14.00;;;;;;;22.79;76.44;98500.63;225531;1272;22553;-73
2023/09/13 07:56:57;;;;;;;21.10;13.30;;;;;;;23.06;75.53;98492.40;225557;1277;22536;-73
2023/09/13 08:01:59;;;;;;;18.10;12.30;;;;;;;23.31;74.86;98481.66;225879;1272;22533;-73
2023/09/13 08:07:02;;;;;;;14.90;12.10;;;;;;;23.57;74.37;98471.06;225844;1275;22624;-73
2023/09/13 08:12:04;;;;;;;15.10;12.00;;;;;;;23.81;73.75;98470.04;225487;1259;22536;-72
2023/09/13 08:17:06;;;;;;;15.60;12.70;;;;;;;24.07;73.37;98472.27;225490;1273;22555;-77
2023/09/13 08:22:08;;;;;;;16.60;12.60;;;;;;;24.31;72.96;98472.77;225483;1273;22582;-72
2023/09/13 08:27:10;;;;;;;17.70;12.60;;;;;;;24.54;72.34;98478.23;225710;1275;22599;-73
2023/09/13 08:32:12;;;;;;;18.00;14.40;;;;;;;24.74;71.34;98478.82;225558;1275;23051;-73
2023/09/13 08:37:15;;;;;;;27.40;13.70;;;;;;;24.92;70.92;98480.02;225870;1262;22556;-69
2023/09/13 08:42:17;;;;;;;29.70;14.50;;;;;;;25.13;70.77;98478.44;225683;1275;25475;-69
2023/09/13 08:47:22;;;;;;;17.20;13.00;;;;;;;25.34;70.35;98481.83;225843;1273;22536;-69
2023/09/13 08:52:26;;;;;;;21.00;13.40;;;;;;;25.55;69.94;98483.11;225758;1275;22544;-70
2023/09/13 08:57:29;;;;;;;24.30;15.00;;;;;;;25.72;68.85;98483.21;225722;1276;22548;-70
2023/09/13 09:02:32;;;;;;;17.50;14.50;;;;;;;25.89;68.67;98483.10;225727;1277;22562;-69
2023/09/13 09:07:34;;;;;;;29.70;14.50;;;;;;;26.06;68.09;98480.40;225766;1277;22553;-69
2023/09/13 09:12:47;;;;;;;16.50;14.60;;;;;;;26.24;68.04;98480.20;225697;1277;22544;-71
2023/09/13 09:17:52;;;;;;;16.40;13.40;;;;;;;26.43;67.48;98478.39;225794;1272;25398;-71
2023/09/13 09:22:57;;;;;;;17.50;13.70;;;;;;;26.61;67.02;98477.19;225820;1280;22564;-70
2023/09/13 09:28:02;;;;;;;16.70;14.90;;;;;;;26.80;66.84;98477.58;225741;1268;22555;-73
2023/09/13 09:33:06;;;;;;;15.70;13.70;;;;;;;26.96;66.08;98477.38;225810;1273;22577;-73
2023/09/13 09:38:22;;;;;;;13.90;12.50;;;;;;;27.06;64.72;98472.99;225711;1280;22609;-71
2023/09/13 09:43:24;;;;;;;13.70;12.20;;;;;;;27.14;63.71;98466.45;225742;1279;22573;-74
2023/09/13 09:48:26;;;;;;;18.00;13.90;;;;;;;27.24;62.88;98462.81;225538;1260;22597;-74
2023/09/13 09:53:30;;;;;;;17.00;13.00;;;;;;;27.37;62.40;98461.65;225680;1268;22609;-75
2023/09/13 09:58:33;;;;;;;15.90;13.20;;;;;;;27.49;61.51;98462.56;225630;1258;22544;-74
2023/09/13 10:03:35;;;;;;;14.20;12.80;;;;;;;27.62;61.43;98461.10;225484;1275;22526;-74
2023/09/13 10:08:46;;;;;;;14.80;12.30;;;;;;;27.76;61.35;98456.48;225722;1275;22572;-74
2023/09/13 10:13:50;;;;;;;18.50;11.80;;;;;;;27.96;60.99;98464.59;225487;1277;22548;-74
2023/09/13 10:18:52;;;;;;;17.30;12.20;;;;;;;28.05;59.76;98462.34;225693;1276;22587;-73
2023/09/13 10:24:06;;;;;;;13.50;11.00;;;;;;;28.11;58.83;98459.70;225352;1277;22568;-73
2023/09/13 10:29:17;;;;;;;12.90;11.40;;;;;;;28.21;58.51;98452.30;225578;1262;22545;-74
2023/09/13 10:34:25;;;;;;;12.10;11.00;;;;;;;28.34;58.68;98448.55;225681;1272;22540;-74
2023/09/13 10:39:32;;;;;;;13.20;11.30;;;;;;;28.47;58.24;98446.16;225884;1276;22557;-73
2023/09/13 10:44:38;;;;;;;14.50;11.50;;;;;;;28.63;56.77;98446.69;225709;1276;22600;-73
2023/09/13 10:49:41;;;;;;;16.50;12.00;;;;;;;28.70;56.40;98447.21;225739;1275;22556;-73
2023/09/13 10:54:47;;;;;;;12.70;11.50;;;;;;;28.81;57.14;98447.38;225792;1268;22646;-73
2023/09/13 10:59:51;;;;;;;13.50;11.50;;;;;;;28.97;57.20;98440.77;225633;1259;23060;-75
2023/09/13 11:04:53;;;;;;;11.80;10.70;;;;;;;29.11;56.64;98447.48;225473;1260;22537;-74
2023/09/13 11:10:04;;;;;;;13.40;12.10;;;;;;;29.15;55.91;98443.17;225664;1266;22549;-73
2023/09/13 11:15:25;;;;;;;13.00;11.30;;;;;;;29.23;56.12;98441.11;225776;1265;22544;-73
2023/09/13 11:20:34;;;;;;;12.30;11.10;;;;;;;29.27;54.66;98439.34;225711;1278;22540;-72
2023/09/13 11:25:38;;;;;;;11.90;10.70;;;;;;;29.30;54.32;98440.21;225496;1274;22629;-73
2023/09/13 11:31:01;;;;;;;12.10;11.00;;;;;;;29.32;54.22;98438.33;225504;1278;22554;-72
2023/09/13 11:36:04;;;;;;;11.50;10.50;;;;;;;29.36;54.19;98439.63;225843;1279;22539;-72
2023/09/13 11:41:06;;;;;;;16.90;11.40;;;;;;;29.52;54.02;98440.00;225825;1280;22557;-72
2023/09/13 11:46:09;;;;;;;11.50;10.50;;;;;;;29.74;54.33;98437.79;225956;1274;22536;-72
2023/09/13 11:51:13;;;;;;;12.00;10.80;;;;;;;29.91;54.08;98431.77;225838;1278;22555;-73
2023/09/13 11:56:31;;;;;;;13.00;10.40;;;;;;;30.04;52.78;98440.39;225604;1272;22543;-72
2023/09/13 12:01:49;;;;;;;11.10;9.70;;;;;;;30.12;51.58;98440.33;225843;1278;22545;-73
2023/09/13 12:06:57;;;;;;;16.80;11.20;;;;;;;30.19;51.49;98446.17;225892;1278;22535;-73
2023/09/13 12:12:04;;;;;;;12.20;10.70;;;;;;;30.25;50.92;98443.69;225855;1270;22633;-75
2023/09/13 12:17:11;;;;;;;10.90;9.80;;;;;;;30.28;50.65;98443.40;225638;1260;24359;-76
2023/09/13 12:22:18;;;;;;;10.60;9.80;;;;;;;30.22;49.23;98443.85;225725;1262;22533;-73
2023/09/13 12:27:23;;;;;;;10.50;9.60;;;;;;;30.16;49.05;98439.34;225893;1262;25249;-72
2023/09/13 12:32:25;;;;;;;10.10;9.00;;;;;;;30.17;48.99;98444.02;225892;1272;22603;-72
2023/09/13 12:37:27;;;;;;;14.30;10.10;;;;;;;30.18;49.04;98442.83;225496;1265;22558;-73
2023/09/13 12:42:29;;;;;;;11.10;9.80;;;;;;;30.16;49.19;98446.64;225703;1265;22605;-73
2023/09/13 12:47:32;;;;;;;10.50;9.60;;;;;;;30.14;49.06;98439.70;225568;1263;22548;-73
2023/09/13 12:52:34;;;;;;;10.60;9.10;;;;;;;30.14;49.35;98434.02;225498;1262;22591;-73
2023/09/13 12:57:36;;;;;;;10.80;9.70;;;;;;;30.31;49.66;98429.91;225345;1268;25923;-72
2023/09/13 13:02:39;;;;;;;10.70;9.40;;;;;;;30.43;48.61;98423.70;225518;1275;24906;-73
2023/09/13 13:07:43;;;;;;;10.20;9.30;;;;;;;30.42;48.45;98425.38;225713;1275;22555;-73
2023/09/13 13:13:02;;;;;;;11.20;10.10;;;;;;;30.44;48.78;98425.10;225379;1278;22605;-73
2023/09/13 13:18:11;;;;;;;11.70;9.00;;;;;;;30.36;48.52;98416.86;225756;1275;22622;-73
2023/09/13 13:23:14;;;;;;;10.20;9.20;;;;;;;30.11;48.73;98412.77;225629;1267;22540;-73
2023/09/13 13:28:29;;;;;;;9.60;8.90;;;;;;;30.05;49.01;98402.09;219625;1304;545285;-73
2023/09/13 13:33:35;;;;;;;10.70;9.60;;;;;;;30.16;48.51;98387.94;224637;1280;22604;-72
2023/09/13 13:38:40;;;;;;;10.70;9.40;;;;;;;30.22;48.09;98379.42;224499;1282;166890;-72
2023/09/13 13:43:42;;;;;;;10.80;9.60;;;;;;;30.22;48.33;98369.81;224912;1279;22491;-72
2023/09/13 13:48:45;;;;;;;9.50;8.60;;;;;;;30.31;48.41;98364.40;224790;1279;22721;-72
2023/09/13 13:53:46;;;;;;;10.10;9.00;;;;;;;30.16;47.10;98368.61;224897;1272;22555;-73
2023/09/13 13:58:48;;;;;;;9.90;8.90;;;;;;;29.94;47.91;98368.27;224781;1280;24918;-72
2023/09/13 14:03:50;;;;;;;9.90;9.00;;;;;;;29.87;47.38;98370.23;224426;1279;22591;-72
2023/09/13 14:08:52;;;;;;;9.70;8.80;;;;;;;29.85;47.44;98362.73;224538;1286;22577;-73
2023/09/13 14:13:55;;;;;;;10.90;9.80;;;;;;;29.83;47.72;98361.11;224682;1280;22565;-72
2023/09/13 14:18:57;;;;;;;12.90;9.30;;;;;;;29.83;48.35;98361.13;224508;1286;23038;-72
2023/09/13 14:24:03;;;;;;;10.50;9.50;;;;;;;29.83;48.31;98361.74;224572;1286;25265;-73
2023/09/13 14:29:07;;;;;;;10.80;9.50;;;;;;;29.74;48.13;98365.27;224940;1286;22566;-72
2023/09/13 14:34:09;;;;;;;9.80;8.90;;;;;;;29.53;48.37;98361.33;225246;1286;22563;-72
2023/09/13 14:39:12;;;;;;;11.60;10.10;;;;;;;29.34;48.60;98361.29;225128;1286;22568;-73
2023/09/13 14:44:15;;;;;;;10.80;9.70;;;;;;;29.28;49.16;98361.48;225048;1285;22530;-74
2023/09/13 14:49:19;;;;;;;11.00;10.00;;;;;;;29.14;49.32;98360.07;225105;1286;25756;-72
2023/09/13 14:54:21;;;;;;;10.30;9.50;;;;;;;28.97;49.77;98361.77;225135;1282;22573;-73
2023/09/13 14:59:23;;;;;;;11.20;10.20;;;;;;;28.82;50.28;98360.21;226215;1277;22541;-73
2023/09/13 15:04:26;;;;;;;11.10;10.10;;;;;;;28.68;50.85;98363.67;226333;1278;22553;-72
2023/09/13 15:09:28;;;;;;;13.00;11.20;;;;;;;28.53;50.96;98367.39;226394;1272;22754;-72
2023/09/13 15:14:29;;;;;;;11.80;10.70;;;;;;;28.35;51.74;98373.82;226432;1274;22539;-72
2023/09/13 15:19:31;;;;;;;12.00;10.70;;;;;;;28.20;52.07;98371.79;226402;1276;22557;-72
2023/09/13 15:24:37;;;;;;;11.40;10.40;;;;;;;28.08;52.49;98363.27;226372;1276;22547;-74
2023/09/13 15:29:40;;;;;;;11.80;10.80;;;;;;;28.00;52.91;98365.55;226366;1272;25235;-72
2023/09/13 15:34:43;;;;;;;13.30;11.90;;;;;;;27.85;53.15;98369.90;226549;1278;22534;-72
2023/09/13 15:39:45;;;;;;;12.30;11.10;;;;;;;27.67;53.59;98366.02;226345;1276;22540;-72
2023/09/13 15:44:47;;;;;;;12.10;10.90;;;;;;;27.46;53.97;98359.46;226467;1275;22815;-72
2023/09/13 15:49:49;;;;;;;13.10;11.80;;;;;;;27.27;54.43;98345.91;226536;1276;22540;-72
2023/09/13 15:54:51;;;;;;;12.10;10.90;;;;;;;27.08;55.05;98340.49;226122;1273;22540;-73
2023/09/13 15:59:56;;;;;;;12.80;11.50;;;;;;;26.90;55.27;98343.46;226522;1270;22541;-73
2023/09/13 16:04:58;;;;;;;13.70;11.10;;;;;;;26.77;55.51;98349.30;226158;1277;23274;-73
2023/09/13 16:10:05;;;;;;;14.30;13.00;;;;;;;26.58;55.52;98359.50;226538;1276;22540;-73
2023/09/13 16:15:08;;;;;;;14.90;13.50;;;;;;;26.41;55.87;98370.36;226219;1277;25993;-73
2023/09/13 16:20:10;;;;;;;12.50;10.90;;;;;;;26.26;56.38;98384.39;226569;1270;22556;-73
2023/09/13 16:25:13;;;;;;;13.60;12.00;;;;;;;26.12;56.88;98402.57;226541;1276;22546;-73
2023/09/13 16:30:18;;;;;;;13.60;11.30;;;;;;;25.95;57.36;98408.56;226383;1277;22546;-73
2023/09/13 16:35:21;;;;;;;14.50;13.20;;;;;;;25.83;57.61;98415.31;226321;1275;24215;-72
2023/09/13 16:40:23;;;;;;;15.10;10.30;;;;;;;25.66;58.20;98470.02;226238;1277;22540;-73
2023/09/13 16:45:26;;;;;;;17.60;10.20;;;;;;;25.15;59.48;98485.05;226276;1275;22771;-73
2023/09/13 16:50:28;;;;;;;10.00;8.20;;;;;;;24.59;60.56;98507.45;226340;1276;22572;-73
2023/09/13 16:55:30;;;;;;;8.80;7.80;;;;;;;24.06;61.23;98497.91;226196;1262;22571;-73
2023/09/13 17:00:32;;;;;;;7.80;6.70;;;;;;;23.64;61.93;98483.87;225940;1277;22541;-73
2023/09/13 17:05:35;;;;;;;8.30;6.70;;;;;;;23.29;62.66;98486.47;226188;1278;22724;-72
2023/09/13 17:10:37;;;;;;;6.40;5.90;;;;;;;22.98;63.21;98489.31;226242;1278;22530;-72
2023/09/13 17:15:39;;;;;;;7.80;6.00;;;;;;;22.74;63.61;98482.05;226097;1278;22599;-73
2023/09/13 17:20:41;;;;;;;6.30;5.70;;;;;;;22.55;64.01;98487.15;226351;1278;22601;-72
2023/09/13 17:25:43;;;;;;;6.90;5.20;;;;;;;22.41;64.36;98477.70;226305;1273;22581;-72
2023/09/13 17:30:46;;;;;;;5.60;5.00;;;;;;;22.28;64.72;98476.10;226285;1276;22553;-73
2023/09/13 17:35:48;;;;;;;5.10;4.60;;;;;;;22.19;64.93;98469.42;226027;1277;22547;-73
2023/09/13 17:40:50;;;;;;;4.80;4.40;;;;;;;22.10;65.11;98470.63;226229;1278;22550;-73
2023/09/13 17:45:53;;;;;;;5.80;4.50;;;;;;;22.05;65.15;98470.09;226066;1277;22550;-73
2023/09/13 17:50:55;;;;;;;6.00;4.40;;;;;;;21.98;65.45;98465.16;226253;1273;22637;-72
2023/09/13 17:55:57;;;;;;;5.00;4.50;;;;;;;21.92;65.73;98467.97;226263;1275;22541;-73
2023/09/13 18:00:59;;;;;;;5.20;4.70;;;;;;;21.88;65.95;98463.06;226252;1276;23291;-73
2023/09/13 18:06:03;;;;;;;5.50;4.90;;;;;;;21.86;66.08;98474.36;226019;1277;22551;-72
2023/09/13 18:11:05;;;;;;;5.20;4.60;;;;;;;21.86;66.06;98482.80;226467;1276;22547;-72
2023/09/13 18:16:08;;;;;;;7.60;5.00;;;;;;;21.86;66.20;98490.88;226285;1272;22565;-73
2023/09/13 18:21:10;;;;;;;6.40;5.20;;;;;;;21.81;66.89;98512.77;226303;1277;22580;-74
2023/09/13 18:26:17;;;;;;;6.70;4.80;;;;;;;21.64;67.38;98521.77;226263;1275;22636;-73
2023/09/13 18:31:19;;;;;;;7.40;5.30;;;;;;;21.42;68.18;98523.44;226235;1277;22579;-73
2023/09/13 18:36:22;;;;;;;6.20;5.70;;;;;;;21.22;69.10;98543.64;226403;1277;22540;-73
2023/09/13 18:41:24;;;;;;;8.40;6.70;;;;;;;21.04;69.91;98523.81;226345;1276;22554;-73
2023/09/13 18:46:26;;;;;;;8.40;7.60;;;;;;;20.92;70.76;98522.84;226262;1277;22594;-72
2023/09/13 18:51:29;;;;;;;9.30;8.40;;;;;;;20.79;71.92;98556.88;226169;1277;22541;-72
2023/09/13 18:56:31;;;;;;;9.90;9.00;;;;;;;20.60;73.15;98597.71;226323;1272;22538;-72
2023/09/13 19:01:34;;;;;;;10.20;9.10;;;;;;;20.39;74.39;98638.55;226493;1275;22636;-71
2023/09/13 19:06:36;;;;;;;13.50;10.80;;;;;;;20.19;75.32;98649.50;226461;1275;25393;-72
2023/09/13 19:11:38;;;;;;;13.70;12.40;;;;;;;20.05;76.49;98642.92;226474;1274;22542;-72
2023/09/13 19:16:41;;;;;;;13.90;12.50;;;;;;;19.99;77.19;98639.05;226531;1275;22553;-72
2023/09/13 19:21:42;;;;;;;14.60;13.20;;;;;;;19.94;77.86;98641.35;226472;1277;22549;-72
2023/09/13 19:26:44;;;;;;;15.90;14.40;;;;;;;19.89;78.49;98651.17;226515;1275;24229;-72
2023/09/13 19:31:46;;;;;;;16.90;14.00;;;;;;;19.81;78.93;98669.04;226459;1277;22596;-72
2023/09/13 19:36:48;;;;;;;13.90;11.10;;;;;;;19.67;79.60;98683.45;226498;1277;24196;-72
2023/09/13 19:41:50;;;;;;;13.10;10.50;;;;;;;19.46;79.66;98684.02;226481;1275;22650;-72
2023/09/13 19:46:52;;;;;;;13.60;10.40;;;;;;;19.30;80.14;98676.50;226495;1275;22561;-72
2023/09/13 19:51:54;;;;;;;11.40;10.20;;;;;;;19.14;80.80;98672.95;226460;1275;22660;-72
2023/09/13 19:56:58;;;;;;;12.90;11.00;;;;;;;19.02;81.49;98682.73;226336;1277;22647;-72
2023/09/13 20:02:00;;;;;;;13.60;11.50;;;;;;;18.93;81.90;98692.72;226447;1275;22549;-72
2023/09/13 20:07:02;;;;;;;15.90;12.70;;;;;;;18.89;82.37;98701.70;226467;1275;23149;-73
2023/09/13 20:12:04;;;;;;;12.90;11.60;;;;;;;18.86;82.71;98694.52;226491;1277;23811;-73
2023/09/13 20:17:07;;;;;;;15.00;12.90;;;;;;;18.85;82.87;98680.05;226523;1275;22587;-73
2023/09/13 20:22:09;;;;;;;14.30;12.50;;;;;;;18.88;83.03;98682.61;226467;1275;22552;-74
2023/09/13 20:27:11;;;;;;;14.40;12.90;;;;;;;18.92;83.30;98683.66;226495;1272;22532;-74
2023/09/13 20:32:13;;;;;;;15.20;13.70;;;;;;;18.95;83.73;98677.76;226455;1277;22556;-74
2023/09/13 20:37:15;;;;;;;15.10;13.50;;;;;;;18.96;83.78;98669.00;226330;1276;22562;-73
2023/09/13 20:42:17;;;;;;;14.80;13.30;;;;;;;18.98;84.04;98666.89;226167;1277;24279;-73
2023/09/13 20:47:19;;;;;;;15.20;13.60;;;;;;;18.99;84.27;98664.75;226333;1278;24886;-73
2023/09/13 20:52:21;;;;;;;15.90;13.90;;;;;;;18.96;84.53;98669.90;226359;1277;22552;-73
2023/09/13 20:57:23;;;;;;;14.70;13.30;;;;;;;18.93;84.56;98682.66;226528;1275;22541;-73
2023/09/13 21:02:26;;;;;;;16.70;13.10;;;;;;;18.87;84.65;98681.74;226364;1272;22545;-74
2023/09/13 21:07:28;;;;;;;15.50;14.00;;;;;;;18.81;84.67;98679.19;226454;1274;22543;-73
2023/09/13 21:12:31;;;;;;;15.30;13.80;;;;;;;18.80;84.98;98685.71;226483;1257;22533;-73
2023/09/13 21:17:33;;;;;;;14.60;13.20;;;;;;;18.81;85.23;98698.47;226339;1276;22541;-74
2023/09/13 21:22:35;;;;;;;16.10;14.40;;;;;;;18.78;85.45;98713.55;226997;1251;22568;-73
2023/09/13 21:27:37;;;;;;;17.20;15.40;;;;;;;18.70;85.28;98703.10;226658;1275;22524;-74
2023/09/13 21:32:40;;;;;;;16.70;15.20;;;;;;;18.64;85.51;98712.77;226943;1275;22558;-73
2023/09/13 21:37:42;;;;;;;18.50;16.60;;;;;;;18.58;86.11;98716.58;226882;1272;25240;-74
2023/09/13 21:42:44;;;;;;;19.80;17.80;;;;;;;18.51;86.65;98723.51;226901;1272;22922;-74
2023/09/13 21:47:46;;;;;;;17.70;16.10;;;;;;;18.44;87.22;98732.20;226891;1269;22548;-74
2023/09/13 21:52:48;;;;;;;12.20;11.00;;;;;;;18.37;87.52;98739.37;226880;1269;24461;-74
2023/09/13 21:57:50;;;;;;;8.30;7.60;;;;;;;18.28;87.54;98731.48;226838;1274;22582;-74
2023/09/13 22:02:52;;;;;;;7.20;6.50;;;;;;;18.18;87.64;98721.51;226941;1274;22526;-73
2023/09/13 22:07:54;;;;;;;9.00;6.40;;;;;;;18.10;87.59;98713.65;226897;1273;22522;-73
2023/09/13 22:12:56;;;;;;;8.10;7.30;;;;;;;18.04;87.63;98704.91;226899;1257;22529;-75
2023/09/13 22:17:58;;;;;;;7.80;7.00;;;;;;;17.99;87.68;98697.06;226858;1274;22534;-74
2023/09/13 22:23:00;;;;;;;7.90;6.10;;;;;;;17.95;87.85;98692.79;226846;1273;24174;-74
2023/09/13 22:28:02;;;;;;;8.70;6.50;;;;;;;17.92;87.85;98691.33;226887;1273;22579;-75
2023/09/13 22:33:04;;;;;;;6.80;6.10;;;;;;;17.88;88.10;98692.80;226913;1272;22560;-74
2023/09/13 22:38:06;;;;;;;8.80;7.00;;;;;;;17.86;88.15;98712.09;226873;1274;25255;-77
2023/09/13 22:43:08;;;;;;;7.80;7.00;;;;;;;17.80;88.31;98725.58;226839;1272;22534;-74
2023/09/13 22:48:11;;;;;;;7.40;5.10;;;;;;;17.75;88.44;98734.23;226831;1273;22547;-75
2023/09/13 22:53:13;;;;;;;5.10;4.60;;;;;;;17.65;88.43;98735.98;226817;1274;22700;-74
2023/09/13 22:58:15;;;;;;;4.50;3.90;;;;;;;17.52;88.63;98730.71;226831;1275;22556;-74
2023/09/13 23:03:17;;;;;;;5.20;3.60;;;;;;;17.41;88.51;98728.41;226890;1275;22545;-75